createdAt,value
2019-02-05T00:01:22.863Z,102266.54
2019-02-05T00:03:51.961Z,102266.54
2019-02-05T00:06:21.597Z,102264.44
2019-02-05T00:08:50.772Z,102264.44
2019-02-05T00:11:19.807Z,102266.53
2019-02-05T00:13:48.890Z,102276.61
2019-02-05T00:16:17.995Z,102276.61
2019-02-05T00:18:47.095Z,102273.69
2019-02-05T00:21:16.363Z,102267.80
2019-02-05T00:23:45.374Z,102274.94
2019-02-05T00:26:14.553Z,102279.98
2019-02-05T00:28:43.605Z,102280.41
2019-02-05T00:31:12.793Z,102284.62
2019-02-05T00:33:41.884Z,102284.17
2019-02-05T00:36:12.624Z,102286.30
2019-02-05T00:38:41.694Z,102286.72
2019-02-05T00:41:10.911Z,102286.72
2019-02-05T00:43:40.026Z,102294.69
2019-02-05T00:46:09.095Z,102294.69
2019-02-05T00:48:38.154Z,102293.88
2019-02-05T00:51:07.675Z,102300.58
2019-02-05T00:53:36.695Z,102300.58
2019-02-05T00:56:17.116Z,102303.52
2019-02-05T00:58:36.949Z,102301.42
2019-02-05T01:01:06.615Z,102300.17
2019-02-05T01:03:35.644Z,102305.63
2019-02-05T01:06:04.992Z,102305.22
2019-02-05T01:08:36.497Z,102309.39
2019-02-05T01:11:05.630Z,102311.11
2019-02-05T01:13:34.756Z,102307.73
2019-02-05T01:16:06.424Z,102305.63
2019-02-05T01:18:35.435Z,102313.62
2019-02-05T01:21:04.692Z,102313.62
2019-02-05T01:23:33.726Z,102318.23
2019-02-05T01:26:02.788Z,102320.36
2019-02-05T01:28:31.819Z,102319.09
2019-02-05T01:31:01.063Z,102319.09
2019-02-05T01:33:30.224Z,102323.72
2019-02-05T01:35:59.324Z,102323.72
2019-02-05T01:38:28.390Z,102320.76
2019-02-05T01:40:57.573Z,102322.45
2019-02-05T01:43:26.702Z,102318.22
2019-02-05T01:45:55.843Z,102323.70
2019-02-05T01:48:25.330Z,102323.70
2019-02-05T01:50:54.342Z,102325.80
2019-02-05T01:53:23.407Z,102331.67
2019-02-05T01:55:54.715Z,102331.67
2019-02-05T01:58:23.829Z,102327.91
2019-02-05T02:00:52.994Z,102338.01
2019-02-05T02:03:22.419Z,102334.63
2019-02-05T02:05:51.503Z,102332.95
2019-02-05T02:08:20.694Z,102335.91
2019-02-05T02:10:50.017Z,102335.91
2019-02-05T02:13:19.096Z,102329.59
2019-02-05T02:15:48.205Z,102328.34
2019-02-05T02:18:17.318Z,102322.01
2019-02-05T02:20:47.708Z,102322.45
2019-02-05T02:23:16.783Z,102330.02
2019-02-05T02:25:48.519Z,102335.05
2019-02-05T02:28:17.710Z,102335.05
2019-02-05T02:30:46.850Z,102331.71
2019-02-05T02:33:16.161Z,102327.05
2019-02-05T02:35:45.341Z,102329.19
2019-02-05T02:38:14.558Z,102329.19
2019-02-05T02:40:43.730Z,102325.80
2019-02-05T02:43:12.855Z,102324.53
2019-02-05T02:45:41.892Z,102320.34
2019-02-05T02:48:11.376Z,102320.34
2019-02-05T02:50:40.674Z,102328.77
2019-02-05T02:53:09.878Z,102327.92
2019-02-05T02:55:38.989Z,102305.20
2019-02-05T02:58:08.156Z,102327.89
2019-02-05T03:00:37.300Z,102327.89
2019-02-05T03:03:08.605Z,102331.70
2019-02-05T03:05:37.737Z,102331.70
2019-02-05T03:08:06.875Z,102335.48
2019-02-05T03:10:35.967Z,102335.48
2019-02-05T03:13:05.006Z,102340.11
2019-02-05T03:15:34.008Z,102333.80
2019-02-05T03:18:03.044Z,102333.78
2019-02-05T03:20:32.501Z,102329.17
2019-02-05T03:23:01.506Z,102342.63
2019-02-05T03:25:30.642Z,102338.84
2019-02-05T03:27:59.737Z,102338.84
2019-02-05T03:30:28.919Z,102340.92
2019-02-05T03:32:59.746Z,102340.10
2019-02-05T03:35:28.854Z,102340.95
2019-02-05T03:37:58.202Z,102336.30
2019-02-05T03:41:05.688Z,102348.07
2019-02-05T03:43:36.502Z,102351.03
2019-02-05T03:46:11.144Z,102345.55
2019-02-05T03:48:40.831Z,102343.04
2019-02-05T03:51:54.555Z,102343.04
2019-02-05T03:55:24.655Z,102364.92
2019-02-05T03:58:23.558Z,102365.73
2019-02-05T04:01:26.743Z,102373.75
2019-02-05T04:04:38.867Z,102379.22
2019-02-05T04:07:47.540Z,102364.49
2019-02-05T04:11:07.416Z,102364.49
2019-02-05T04:14:12.647Z,102367.84
2019-02-05T04:17:14.525Z,102359.03
2019-02-05T04:20:16.020Z,102377.09
2019-02-05T04:23:27.999Z,102377.12
2019-02-05T04:26:28.766Z,102375.42
2019-02-05T04:29:20.959Z,102375.43
2019-02-05T04:32:38.372Z,102376.69
2019-02-05T04:35:47.812Z,102375.02
2019-02-05T04:38:55.171Z,102376.70
2019-02-05T04:41:55.948Z,102376.70
2019-02-05T04:44:49.041Z,102376.70
2019-02-05T04:48:04.157Z,102380.05
2019-02-05T04:51:00.008Z,102380.88
2019-02-05T04:53:46.200Z,102382.16
2019-02-05T04:56:52.296Z,102380.49
2019-02-05T05:00:05.630Z,102380.49
2019-02-05T05:03:17.648Z,102381.74
2019-02-05T05:06:18.033Z,102385.53
2019-02-05T05:09:01.847Z,102380.05
2019-02-05T05:11:30.980Z,102382.56
2019-02-05T05:14:00.213Z,102383.83
2019-02-05T05:16:29.346Z,102394.77
2019-02-05T05:18:58.790Z,102394.77
2019-02-05T05:21:27.935Z,102393.52
2019-02-05T05:23:57.802Z,102392.69
2019-02-05T05:26:27.205Z,102396.03
2019-02-05T05:28:56.382Z,102391.84
2019-02-05T05:31:25.576Z,102403.20
2019-02-05T05:33:54.692Z,102412.45
2019-02-05T05:36:23.801Z,102412.87
2019-02-05T05:38:53.037Z,102412.87
2019-02-05T05:41:22.081Z,102411.61
2019-02-05T05:43:51.125Z,102415.80
2019-02-05T05:46:20.230Z,102422.54
2019-02-05T05:48:49.274Z,102427.58
2019-02-05T05:51:18.369Z,102438.09
2019-02-05T05:53:47.353Z,102437.67
2019-02-05T05:56:17.051Z,102438.94
2019-02-05T05:58:46.083Z,102433.07
2019-02-05T06:01:15.172Z,102436.86
2019-02-05T06:03:44.423Z,102438.53
2019-02-05T06:06:14.695Z,102438.53
2019-02-05T06:08:43.810Z,102449.46
2019-02-05T06:11:14.775Z,102445.27
2019-02-05T06:13:45.452Z,102445.27
2019-02-05T06:16:14.514Z,102449.89
2019-02-05T06:18:45.373Z,102448.62
2019-02-05T06:21:15.702Z,102449.47
2019-02-05T06:23:44.970Z,102444.83
2019-02-05T06:26:14.163Z,102455.34
2019-02-05T06:28:43.567Z,102451.55
2019-02-05T06:31:12.899Z,102451.98
2019-02-05T06:33:42.014Z,102455.36
2019-02-05T06:36:11.203Z,102458.28
2019-02-05T06:38:40.361Z,102460.83
2019-02-05T06:41:09.582Z,102469.24
2019-02-05T06:43:39.079Z,102469.24
2019-02-05T06:46:08.192Z,102469.23
2019-02-05T06:48:37.208Z,102476.41
2019-02-05T06:51:06.334Z,102473.03
2019-02-05T06:53:35.491Z,102473.03
2019-02-05T06:56:05.122Z,102474.70
2019-02-05T06:58:45.645Z,102488.16
2019-02-05T07:01:05.327Z,102499.95
2019-02-05T07:03:34.474Z,102491.55
2019-02-05T07:06:03.720Z,102491.55
2019-02-05T07:08:32.807Z,102491.94
2019-02-05T07:11:01.911Z,102490.27
2019-02-05T07:13:31.232Z,102490.27
2019-02-05T07:16:00.890Z,102503.72
2019-02-05T07:18:29.965Z,102503.72
2019-02-05T07:20:59.088Z,102496.57
2019-02-05T07:23:29.048Z,102502.89
2019-02-05T07:25:58.205Z,102511.31
2019-02-05T07:28:27.329Z,102506.28
2019-02-05T07:30:56.603Z,102511.75
2019-02-05T07:33:25.708Z,102511.75
2019-02-05T07:35:54.847Z,102513.81
2019-02-05T07:38:24.008Z,102517.63
2019-02-05T07:40:53.339Z,102517.63
2019-02-05T07:43:22.450Z,102522.24
2019-02-05T07:45:51.699Z,102528.16
2019-02-05T07:48:20.911Z,102520.98
2019-02-05T07:50:50.249Z,102520.98
2019-02-05T07:53:19.551Z,102531.93
2019-02-05T07:55:48.700Z,102538.25
2019-02-05T07:58:17.779Z,102539.10
2019-02-05T08:00:46.934Z,102539.10
2019-02-05T08:03:16.036Z,102538.25
2019-02-05T08:05:45.331Z,102548.36
2019-02-05T08:08:14.865Z,102539.08
2019-02-05T08:10:44.152Z,102539.08
2019-02-05T08:13:13.348Z,102542.89
2019-02-05T08:15:42.433Z,102544.98
2019-02-05T08:18:11.668Z,102555.10
2019-02-05T08:20:40.747Z,102546.69
2019-02-05T08:23:09.993Z,102544.16
2019-02-05T08:25:39.129Z,102548.76
2019-02-05T08:28:08.576Z,102552.58
2019-02-05T08:30:40.670Z,102547.11
2019-02-05T08:33:09.861Z,102549.20
2019-02-05T08:35:39.123Z,102542.07
2019-02-05T08:38:08.391Z,102546.27
2019-02-05T08:40:37.620Z,102546.27
2019-02-05T08:43:07.300Z,102556.79
2019-02-05T08:45:37.161Z,102555.09
2019-02-05T08:48:07.424Z,102572.37
2019-02-05T08:50:36.836Z,102572.37
2019-02-05T08:53:08.418Z,102569.44
2019-02-05T08:55:40.754Z,102566.05
2019-02-05T08:58:11.388Z,102566.05
2019-02-05T09:00:40.849Z,102564.39
2019-02-05T09:03:10.811Z,102566.05
2019-02-05T09:05:40.129Z,102565.65
2019-02-05T09:08:09.591Z,102569.42
2019-02-05T09:10:39.333Z,102574.05
2019-02-05T09:13:08.567Z,102582.06
2019-02-05T09:15:39.064Z,102584.61
2019-02-05T09:18:08.563Z,102584.61
2019-02-05T09:20:37.780Z,102590.48
2019-02-05T09:23:08.565Z,102587.11
2019-02-05T09:25:37.776Z,102565.64
2019-02-05T09:28:09.225Z,102565.64
2019-02-05T09:30:38.457Z,102583.33
2019-02-05T09:33:10.810Z,102594.30
2019-02-05T09:35:40.047Z,102595.12
2019-02-05T09:38:11.347Z,102591.77
2019-02-05T09:40:40.674Z,102596.39
2019-02-05T09:43:09.898Z,102598.08
2019-02-05T09:45:39.245Z,102598.08
2019-02-05T09:48:08.562Z,102601.88
2019-02-05T09:50:44.734Z,102612.41
2019-02-05T09:53:08.776Z,102608.20
2019-02-05T09:55:37.973Z,102608.20
2019-02-05T09:58:07.214Z,102613.25
2019-02-05T10:00:38.524Z,102606.49
2019-02-05T10:03:08.803Z,102615.78
2019-02-05T10:05:38.164Z,102620.81
2019-02-05T10:08:07.579Z,102628.41
2019-02-05T10:10:36.823Z,102630.11
2019-02-05T10:13:06.992Z,102628.42
2019-02-05T10:15:37.398Z,102628.42
2019-02-05T10:18:08.290Z,102636.00
2019-02-05T10:20:37.506Z,102643.13
2019-02-05T10:23:08.298Z,102649.05
2019-02-05T10:25:37.803Z,102649.05
2019-02-05T10:28:07.517Z,102653.69
2019-02-05T10:30:39.164Z,102654.52
2019-02-05T10:33:08.766Z,102654.52
2019-02-05T10:35:38.469Z,102649.48
2019-02-05T10:38:08.042Z,102652.44
2019-02-05T10:40:37.594Z,102658.31
2019-02-05T10:43:08.492Z,102658.72
2019-02-05T10:45:38.221Z,102663.36
2019-02-05T10:48:09.710Z,102660.00
2019-02-05T10:50:39.015Z,102663.80
2019-02-05T10:53:08.316Z,102665.89
2019-02-05T10:55:37.545Z,102665.48
2019-02-05T10:58:07.341Z,102665.90
2019-02-05T11:00:36.651Z,102671.78
2019-02-05T11:03:07.768Z,102667.14
2019-02-05T11:05:38.172Z,102668.44
2019-02-05T11:08:09.254Z,102668.44
2019-02-05T11:10:38.468Z,102672.23
2019-02-05T11:13:08.046Z,102680.64
2019-02-05T11:15:38.563Z,102682.34
2019-02-05T11:18:10.128Z,102674.33
2019-02-05T11:20:39.425Z,102669.27
2019-02-05T11:23:08.728Z,102664.22
2019-02-05T11:25:39.938Z,102664.22
2019-02-05T11:28:15.013Z,102660.01
2019-02-05T11:30:46.738Z,102660.01
2019-02-05T11:33:17.294Z,102655.81
2019-02-05T11:35:46.540Z,102656.22
2019-02-05T11:38:17.126Z,102656.22
2019-02-05T11:40:46.502Z,102650.33
2019-02-05T11:43:18.214Z,102650.33
2019-02-05T11:45:47.358Z,102649.08
2019-02-05T11:48:18.949Z,102646.95
2019-02-05T11:50:48.192Z,102647.81
2019-02-05T11:53:17.475Z,102647.81
2019-02-05T11:55:46.708Z,102644.42
2019-02-05T11:58:16.451Z,102649.50
2019-02-05T12:00:51.383Z,102642.73
2019-02-05T12:03:21.816Z,102642.73
2019-02-05T12:05:50.974Z,102647.80
2019-02-05T12:08:20.277Z,102649.48
2019-02-05T12:10:49.401Z,102642.75
2019-02-05T12:13:18.469Z,102639.39
2019-02-05T12:15:47.625Z,102644.87
2019-02-05T12:18:18.433Z,102642.30
2019-02-05T12:20:47.738Z,102643.16
2019-02-05T12:23:17.035Z,102640.19
2019-02-05T12:25:46.332Z,102643.13
2019-02-05T12:28:17.095Z,102641.03
2019-02-05T12:30:46.646Z,102641.03
2019-02-05T12:33:15.768Z,102638.12
2019-02-05T12:35:45.514Z,102638.95
2019-02-05T12:38:14.800Z,102637.25
2019-02-05T12:40:43.956Z,102637.25
2019-02-05T12:43:13.155Z,102631.35
2019-02-05T12:45:42.397Z,102627.97
2019-02-05T12:48:11.611Z,102627.97
2019-02-05T12:50:40.899Z,102619.13
2019-02-05T12:53:10.165Z,102619.55
2019-02-05T12:55:39.355Z,102615.33
2019-02-05T12:58:08.608Z,102615.33
2019-02-05T13:00:42.688Z,102627.97
2019-02-05T13:03:12.632Z,102627.97
2019-02-05T13:05:43.985Z,102625.01
2019-02-05T13:08:13.263Z,102620.37
2019-02-05T13:10:44.757Z,102621.61
2019-02-05T13:13:18.166Z,102618.27
2019-02-05T13:15:46.277Z,102614.06
2019-02-05T13:18:15.637Z,102614.06
2019-02-05T13:20:44.881Z,102607.66
2019-02-05T13:23:14.162Z,102614.46
2019-02-05T13:25:43.598Z,102611.11
2019-02-05T13:28:14.242Z,102616.98
2019-02-05T13:30:43.526Z,102616.13
2019-02-05T13:33:14.366Z,102624.57
2019-02-05T13:35:43.551Z,102624.57
2019-02-05T13:38:12.786Z,102619.09
2019-02-05T13:40:43.146Z,102621.62
2019-02-05T13:43:12.344Z,102627.52
2019-02-05T13:45:42.379Z,102627.52
2019-02-05T13:48:11.814Z,102630.89
2019-02-05T13:50:41.129Z,102631.30
2019-02-05T13:53:10.425Z,102630.45
2019-02-05T13:55:41.752Z,102632.97
2019-02-05T13:58:11.589Z,102627.10
2019-02-05T14:00:45.957Z,102623.69
2019-02-05T14:03:15.199Z,102611.02
2019-02-05T14:05:44.868Z,102609.78
2019-02-05T14:08:14.143Z,102615.25
2019-02-05T14:10:43.967Z,102615.25
2019-02-05T14:13:13.180Z,102617.78
2019-02-05T14:15:43.450Z,102616.52
2019-02-05T14:18:12.831Z,102624.50
2019-02-05T14:20:42.033Z,102632.98
2019-02-05T14:23:11.321Z,102632.98
2019-02-05T14:25:40.491Z,102627.08
2019-02-05T14:28:09.758Z,102619.08
2019-02-05T14:30:51.936Z,102619.47
2019-02-05T14:33:21.445Z,102612.28
2019-02-05T14:35:50.739Z,102612.28
2019-02-05T14:38:20.190Z,102602.63
2019-02-05T14:40:49.316Z,102602.63
2019-02-05T14:43:18.509Z,102605.09
2019-02-05T14:45:47.678Z,102604.28
2019-02-05T14:48:17.073Z,102604.28
2019-02-05T14:50:47.159Z,102609.34
2019-02-05T14:53:16.370Z,102607.22
2019-02-05T14:55:46.146Z,102605.92
2019-02-05T14:58:16.577Z,102602.96
2019-02-05T15:00:47.175Z,102605.91
2019-02-05T15:03:16.553Z,102605.91
2019-02-05T15:05:46.672Z,102609.29
2019-02-05T15:08:17.343Z,102603.77
2019-02-05T15:10:47.598Z,102597.90
2019-02-05T15:13:17.933Z,102597.90
2019-02-05T15:15:47.272Z,102594.94
2019-02-05T15:18:18.598Z,102589.44
2019-02-05T15:20:49.355Z,102589.47
2019-02-05T15:23:18.798Z,102594.10
2019-02-05T15:25:48.084Z,102573.45
2019-02-05T15:28:17.324Z,102573.45
2019-02-05T15:30:46.612Z,102582.70
2019-02-05T15:33:42.246Z,102585.22
2019-02-05T15:36:19.860Z,102585.67
2019-02-05T15:38:49.195Z,102588.64
2019-02-05T15:41:18.441Z,102588.64
2019-02-05T15:43:47.640Z,102590.31
2019-02-05T15:46:16.871Z,102589.87
2019-02-05T15:48:46.531Z,102591.57
2019-02-05T15:51:15.742Z,102588.55
2019-02-05T15:53:44.824Z,102592.33
2019-02-05T15:56:15.530Z,102581.78
2019-02-05T15:58:45.031Z,102581.78
2019-02-05T16:01:14.375Z,102593.23
2019-02-05T16:03:43.843Z,102593.23
2019-02-05T16:06:13.077Z,102588.11
2019-02-05T16:08:42.246Z,102591.09
2019-02-05T16:11:12.366Z,102593.61
2019-02-05T16:13:41.849Z,102593.61
2019-02-05T16:16:11.086Z,102594.86
2019-02-05T16:18:40.697Z,102601.19
2019-02-05T16:21:10.895Z,102589.89
2019-02-05T16:23:42.113Z,102592.80
2019-02-05T16:26:11.241Z,102584.78
2019-02-05T16:28:40.454Z,102584.78
2019-02-05T16:31:10.024Z,102570.86
2019-02-05T16:33:40.149Z,102573.84
2019-02-05T16:36:09.400Z,102574.69
2019-02-05T16:38:38.661Z,102571.31
2019-02-05T16:41:07.861Z,102499.37
2019-02-05T16:43:36.941Z,102569.20
2019-02-05T16:46:09.450Z,102564.99
2019-02-05T16:48:39.140Z,102568.33
2019-02-05T16:51:08.318Z,102571.30
2019-02-05T16:53:37.454Z,102569.66
2019-02-05T16:56:06.724Z,102562.48
2019-02-05T16:58:35.919Z,102562.48
2019-02-05T17:01:05.678Z,102551.07
2019-02-05T17:03:35.272Z,102556.59
2019-02-05T17:06:04.905Z,102556.59
2019-02-05T17:08:34.007Z,102559.93
2019-02-05T17:11:03.155Z,102553.64
2019-02-05T17:13:32.247Z,102545.63
2019-02-05T17:16:01.409Z,102540.97
2019-02-05T17:18:30.821Z,102538.89
2019-02-05T17:21:00.086Z,102540.98
2019-02-05T17:23:29.261Z,102538.85
2019-02-05T17:25:58.493Z,102533.80
2019-02-05T17:28:27.678Z,102536.34
2019-02-05T17:30:56.872Z,102527.44
2019-02-05T17:33:26.344Z,102538.41
2019-02-05T17:35:55.500Z,102537.55
2019-02-05T17:38:25.679Z,102530.78
2019-02-05T17:40:55.165Z,102529.52
2019-02-05T17:43:24.304Z,102532.91
2019-02-05T17:45:55.879Z,102532.91
2019-02-05T17:48:25.588Z,102528.20
2019-02-05T17:50:57.047Z,102526.93
2019-02-05T17:53:26.342Z,102529.50
2019-02-05T17:55:55.637Z,102533.30
2019-02-05T17:58:24.901Z,102528.67
2019-02-05T18:01:00.981Z,102528.67
2019-02-05T18:03:30.191Z,102531.22
2019-02-05T18:05:59.439Z,102530.39
2019-02-05T18:08:28.579Z,102529.97
2019-02-05T18:10:57.931Z,102530.82
2019-02-05T18:13:27.014Z,102532.09
2019-02-05T18:15:56.418Z,102535.08
2019-02-05T18:18:29.143Z,102533.39
2019-02-05T18:20:58.270Z,102537.58
2019-02-05T18:23:27.482Z,102538.00
2019-02-05T18:25:56.648Z,102544.75
2019-02-05T18:28:25.780Z,102539.27
2019-02-05T18:30:57.749Z,102533.80
2019-02-05T18:33:27.019Z,102539.70
2019-02-05T18:35:56.332Z,102539.70
2019-02-05T18:38:26.667Z,102549.03
2019-02-05T18:40:55.917Z,102543.53
2019-02-05T18:43:25.174Z,102537.25
2019-02-05T18:45:55.919Z,102536.34
2019-02-05T18:48:26.853Z,102533.84
2019-02-05T18:50:56.120Z,102533.44
2019-02-05T18:53:25.388Z,102541.44
2019-02-05T18:55:54.543Z,102544.82
2019-02-05T18:58:26.698Z,102544.82
2019-02-05T19:00:54.713Z,102537.68
2019-02-05T19:03:23.951Z,102536.83
2019-02-05T19:05:53.181Z,102523.77
2019-02-05T19:08:22.427Z,102526.73
2019-02-05T19:10:51.573Z,102522.13
2019-02-05T19:13:20.891Z,102514.96
2019-02-05T19:15:50.535Z,102512.02
2019-02-05T19:18:21.818Z,102513.28
2019-02-05T19:20:51.031Z,102513.28
2019-02-05T19:23:20.182Z,102514.53
2019-02-05T19:25:58.069Z,102518.73
2019-02-05T19:28:32.276Z,102519.59
2019-02-05T19:31:16.779Z,102519.59
2019-02-05T19:33:46.025Z,102533.96
2019-02-05T19:36:16.755Z,102531.85
2019-02-05T19:38:46.348Z,102531.85
2019-02-05T19:41:15.490Z,102526.41
2019-02-05T19:43:46.193Z,102530.17
2019-02-05T19:46:33.310Z,102530.17
2019-02-05T19:49:21.834Z,102537.78
2019-02-05T19:51:45.950Z,102536.50
2019-02-05T19:54:15.364Z,102536.50
2019-02-05T19:56:44.531Z,102531.46
2019-02-05T19:59:14.171Z,102527.66
2019-02-05T20:01:43.344Z,102523.05
2019-02-05T20:04:12.608Z,102514.60
2019-02-05T20:06:42.311Z,102517.14
2019-02-05T20:09:14.433Z,102514.22
2019-02-05T20:11:44.724Z,102508.75
2019-02-05T20:14:13.932Z,102502.03
2019-02-05T20:16:43.211Z,102502.03
2019-02-05T20:19:12.365Z,102503.28
2019-02-05T20:21:41.907Z,102503.28
2019-02-05T20:24:11.106Z,102508.34
2019-02-05T20:26:40.270Z,102513.00
2019-02-05T20:29:09.493Z,102513.00
2019-02-05T20:31:38.687Z,102514.27
2019-02-05T20:34:07.949Z,102514.26
2019-02-05T20:36:37.203Z,102522.27
2019-02-05T20:39:14.708Z,102514.27
2019-02-05T20:41:44.086Z,102507.13
2019-02-05T20:44:13.501Z,102509.65
2019-02-05T20:46:42.610Z,102507.97
2019-02-05T20:49:11.770Z,102507.54
2019-02-05T20:51:41.072Z,102509.65
2019-02-05T20:54:10.537Z,102509.65
2019-02-05T20:56:39.677Z,102506.30
2019-02-05T20:59:09.033Z,102512.19
2019-02-05T21:01:38.312Z,102510.07
2019-02-05T21:04:07.475Z,102507.11
2019-02-05T21:06:38.316Z,102505.03
2019-02-05T21:09:21.603Z,102505.03
2019-02-05T21:11:50.796Z,102497.86
2019-02-05T21:14:20.308Z,102497.01
2019-02-05T21:16:49.438Z,102494.06
2019-02-05T21:19:18.973Z,102495.76
2019-02-05T21:21:48.650Z,102480.17
2019-02-05T21:24:17.860Z,102482.69
2019-02-05T21:26:49.176Z,102486.91
2019-02-05T21:29:18.372Z,102486.91
2019-02-05T21:31:47.572Z,102487.33
2019-02-05T21:34:16.756Z,102485.22
2019-02-05T21:36:45.822Z,102480.16
2019-02-05T21:39:14.976Z,102480.16
2019-02-05T21:41:44.106Z,102467.55
2019-02-05T21:44:13.175Z,102465.44
2019-02-05T21:46:42.428Z,102462.91
2019-02-05T21:49:11.643Z,102458.69
2019-02-05T21:51:42.874Z,102456.61
2019-02-05T21:54:11.616Z,102455.34
2019-02-05T21:56:40.805Z,102459.16
2019-02-05T21:59:10.087Z,102454.50
2019-02-05T22:01:39.321Z,102458.72
2019-02-05T22:04:10.221Z,102459.56
2019-02-05T22:06:39.415Z,102460.41
2019-02-05T22:09:12.225Z,102450.30
2019-02-05T22:11:41.531Z,102457.90
2019-02-05T22:14:10.857Z,102459.14
2019-02-05T22:16:42.308Z,102448.61
2019-02-05T22:19:11.768Z,102448.61
2019-02-05T22:21:40.961Z,102462.52
2019-02-05T22:24:10.161Z,102466.32
2019-02-05T22:26:39.454Z,102452.01
2019-02-05T22:29:08.989Z,102455.80
2019-02-05T22:31:38.174Z,102454.94
2019-02-05T22:34:07.854Z,102456.20
2019-02-05T22:36:37.227Z,102456.20
2019-02-05T22:39:09.357Z,102449.03
2019-02-05T22:41:38.532Z,102449.03
2019-02-05T22:44:07.923Z,102426.33
2019-02-05T22:46:37.190Z,102420.85
2019-02-05T22:49:06.494Z,102413.70
2019-02-05T22:51:35.622Z,102404.87
2019-02-05T22:54:05.112Z,102404.03
2019-02-05T22:56:34.353Z,102409.52
2019-02-05T22:59:04.114Z,102404.02
2019-02-05T23:01:59.690Z,102405.70
2019-02-05T23:05:08.801Z,102338.86
2019-02-05T23:07:37.963Z,102404.45
2019-02-05T23:11:02.825Z,102404.45
2019-02-05T23:13:22.883Z,102399.41
2019-02-05T23:15:53.026Z,102399.41
2019-02-05T23:18:23.252Z,102398.98
2019-02-05T23:20:53.955Z,102412.45
2019-02-05T23:23:23.696Z,102410.33
2019-02-05T23:25:52.845Z,102410.33
2019-02-05T23:28:22.012Z,102404.86
2019-02-05T23:30:51.638Z,102405.70
2019-02-05T23:33:20.648Z,102405.70
2019-02-05T23:35:49.730Z,102399.83
2019-02-05T23:38:18.835Z,102397.30
2019-02-05T23:40:48.007Z,102389.72
2019-02-05T23:43:17.267Z,102389.72
2019-02-05T23:46:00.605Z,102386.37
2019-02-05T23:48:17.521Z,102378.80
2019-02-05T23:50:46.812Z,102383.41
2019-02-05T23:53:15.877Z,102383.84
2019-02-05T23:55:44.881Z,102381.31
2019-02-05T23:58:13.968Z,102372.47
